Time;durP1;ratioP1;P1;durP2;ratioP2;P2;SDS_P1;SDS_P2;PMS_P1;PMS_P2;Temp;Humidity;BMP_temperature;BMP_pressure;BME280_temperature;BME280_humidity;BME280_pressure;Samples;Min_cycle;Max_cycle;Signal;HPM_P1;HPM_P2
2022/04/30 00:01:09;;;;;;;;;9.00;8.00;;;;;10.24;61.56;100944.59;5097813;28;8827;-61
2022/04/30 00:03:38;;;;;;;;;9.25;9.00;;;;;10.22;61.81;100950.97;5098374;28;8857;-63
2022/04/30 00:06:06;;;;;;;;;7.00;7.00;;;;;10.20;61.80;100937.78;5098219;28;8877;-62
2022/04/30 00:08:35;;;;;;;;;7.00;6.50;;;;;10.17;61.97;100945.94;5098063;28;8844;-62
2022/04/30 00:11:03;;;;;;;;;9.00;9.00;;;;;10.14;61.86;100940.81;5097005;28;8854;-62
2022/04/30 00:13:30;;;;;;;;;9.50;7.00;;;;;10.11;62.17;100954.28;5097944;28;9661;-62
2022/04/30 00:15:59;;;;;;;;;9.25;9.00;;;;;10.10;61.73;100957.91;5097869;28;8835;-62
2022/04/30 00:18:27;;;;;;;;;6.25;3.00;;;;;10.09;61.67;100961.53;5097605;28;8824;-62
2022/04/30 00:20:58;;;;;;;;;4.00;2.50;;;;;10.06;61.87;100953.75;5097500;28;8873;-62
2022/04/30 00:23:27;;;;;;;;;6.50;6.50;;;;;10.06;62.10;100959.06;5097601;28;8835;-64
2022/04/30 00:25:54;;;;;;;;;8.50;7.00;;;;;10.03;61.97;100953.06;5097225;28;8831;-61
2022/04/30 00:28:23;;;;;;;;;9.50;8.00;;;;;9.98;61.80;100955.97;5095305;28;8831;-62
2022/04/30 00:30:50;;;;;;;;;7.00;7.00;;;;;9.95;62.18;100953.50;5097002;28;8808;-62
2022/04/30 00:33:18;;;;;;;;;9.25;9.00;;;;;9.91;62.05;100948.44;5097178;28;8815;-62
2022/04/30 00:35:45;;;;;;;;;7.50;7.50;;;;;9.86;62.40;100951.41;5097563;28;8835;-61
2022/04/30 00:38:15;;;;;;;;;9.00;9.00;;;;;9.83;62.26;100943.63;5097319;28;8816;-62
2022/04/30 00:40:42;;;;;;;;;9.80;7.00;;;;;9.84;62.59;100947.97;5096906;28;8901;-61
2022/04/30 00:43:10;;;;;;;;;9.25;7.00;;;;;9.83;62.34;100951.59;5097418;28;8820;-63
2022/04/30 00:45:38;;;;;;;;;9.00;7.00;;;;;9.81;61.87;100949.97;5097362;28;8823;-62
2022/04/30 00:48:07;;;;;;;;;7.00;7.00;;;;;9.81;62.05;100955.28;5097054;28;8841;-61
2022/04/30 00:50:35;;;;;;;;;4.40;4.40;;;;;9.79;62.54;100946.56;5096950;28;8838;-62
2022/04/30 00:53:03;;;;;;;;;3.00;3.00;;;;;9.78;62.04;100947.50;5096970;28;8827;-62
2022/04/30 00:55:31;;;;;;;;;7.00;7.00;;;;;9.76;62.10;100950.25;5097198;28;8985;-61
2022/04/30 00:57:59;;;;;;;;;6.00;5.60;;;;;9.75;62.27;100950.34;5096961;28;8824;-65
2022/04/30 01:00:27;;;;;;;;;8.50;7.00;;;;;9.75;62.61;100953.00;5096915;28;8844;-62
2022/04/30 01:02:54;;;;;;;;;7.00;7.00;;;;;9.73;62.54;100939.78;5096758;28;8940;-63
2022/04/30 01:05:22;;;;;;;;;6.40;6.40;;;;;9.72;62.40;100947.88;5097302;28;8831;-62
2022/04/30 01:07:51;;;;;;;;;6.00;6.00;;;;;9.70;62.25;100949.75;5097057;28;9528;-62
2022/04/30 01:10:19;;;;;;;;;3.50;3.50;;;;;9.68;62.41;100949.00;5096826;28;9492;-62
2022/04/30 01:12:47;;;;;;;;;10.00;7.75;;;;;9.65;62.88;100950.03;5096659;28;8873;-62
2022/04/30 01:15:14;;;;;;;;;8.60;8.60;;;;;9.60;62.77;100941.47;5096318;28;8824;-62
2022/04/30 01:17:42;;;;;;;;;10.00;8.20;;;;;9.59;62.46;100941.56;5096665;28;8862;-62
2022/04/30 01:20:10;;;;;;;;;8.50;7.00;;;;;9.52;62.74;100945.53;5096147;28;8846;-62
2022/04/30 01:22:37;;;;;;;;;2.20;2.20;;;;;9.47;62.59;100948.47;5096954;28;8848;-63
2022/04/30 01:25:05;;;;;;;;;3.80;3.80;;;;;9.45;62.50;100947.72;5096354;28;8843;-62
2022/04/30 01:27:33;;;;;;;;;5.60;5.20;;;;;9.44;62.96;100939.81;5096347;28;9535;-62
2022/04/30 01:30:01;;;;;;;;;6.00;6.00;;;;;9.43;62.75;100933.63;5095743;28;8838;-63
2022/04/30 01:38:00;;;;;;;;;6.20;4.00;;;;;9.25;63.13;100924.09;5096011;28;8853;-62
2022/04/30 01:40:28;;;;;;;;;4.40;3.40;;;;;9.19;63.33;100919.13;5095528;28;8836;-62
2022/04/30 01:42:58;;;;;;;;;5.20;5.20;;;;;9.16;63.20;100914.00;5095957;28;8828;-62
2022/04/30 01:45:26;;;;;;;;;4.00;4.00;;;;;9.13;62.86;100914.16;5095453;28;8980;-62
2022/04/30 01:47:53;;;;;;;;;6.60;6.00;;;;;9.11;63.60;100908.09;5096303;28;8970;-62
2022/04/30 01:50:21;;;;;;;;;4.80;4.80;;;;;9.09;64.12;100907.34;5095767;28;8878;-63
2022/04/30 01:52:49;;;;;;;;;1.00;1.00;;;;;9.07;63.32;100909.22;5094703;28;8827;-62
2022/04/30 01:55:17;;;;;;;;;4.40;4.00;;;;;9.05;63.79;100905.78;5094129;28;8858;-62
2022/04/30 01:57:45;;;;;;;;;3.60;3.60;;;;;9.03;63.65;100902.38;5094238;28;8912;-61
2022/04/30 02:00:14;;;;;;;;;3.00;1.00;;;;;9.01;63.77;100898.09;5093707;28;9803;-62
2022/04/30 02:02:41;;;;;;;;;6.20;5.60;;;;;8.99;63.99;100900.84;5095953;28;8840;-62
2022/04/30 02:05:09;;;;;;;;;6.20;6.20;;;;;8.98;63.68;100899.13;5095840;28;8816;-62
2022/04/30 02:07:38;;;;;;;;;5.20;3.60;;;;;8.96;63.83;100890.38;5095962;28;8820;-63
2022/04/30 02:10:06;;;;;;;;;7.00;4.40;;;;;8.92;63.73;100891.53;5095739;28;8836;-62
2022/04/30 02:12:34;;;;;;;;;6.00;4.40;;;;;8.88;63.73;100889.97;5095362;28;8827;-62
2022/04/30 02:15:01;;;;;;;;;3.40;3.40;;;;;8.86;63.39;100893.66;5094963;28;8877;-62
2022/04/30 02:17:29;;;;;;;;;6.00;6.00;;;;;8.83;64.12;100883.22;5095706;28;8878;-62
2022/04/30 02:22:42;;;;;;;;;4.00;4.00;;;;;8.69;63.86;100881.38;5094529;28;9533;-63
2022/04/30 02:25:10;;;;;;;;;3.00;3.00;;;;;8.65;64.27;100887.78;5096080;28;8850;-62
2022/04/30 02:27:38;;;;;;;;;4.40;4.40;;;;;8.61;64.46;100880.06;5096066;28;8820;-62
2022/04/30 02:30:05;;;;;;;;;5.20;4.00;;;;;8.57;64.47;100886.50;5095686;28;8937;-62
2022/04/30 02:32:33;;;;;;;;;6.00;5.60;;;;;8.53;64.44;100888.44;5094778;28;8823;-62
2022/04/30 02:35:01;;;;;;;;;4.00;3.60;;;;;8.46;64.94;100883.59;5093757;28;8828;-63
2022/04/30 02:37:29;;;;;;;;;3.00;3.00;;;;;8.38;64.60;100885.81;5095190;28;8823;-62
2022/04/30 02:39:56;;;;;;;;;4.40;3.80;;;;;8.30;64.94;100883.56;5095585;28;8953;-62
2022/04/30 02:42:24;;;;;;;;;6.40;5.20;;;;;8.21;65.31;100884.09;5094063;28;8835;-62
2022/04/30 02:44:52;;;;;;;;;7.80;6.40;;;;;8.16;64.95;100886.13;5095159;28;8827;-61
2022/04/30 02:47:20;;;;;;;;;6.00;4.00;;;;;8.09;65.37;100884.75;5095887;28;8862;-62
2022/04/30 02:49:47;;;;;;;;;5.20;5.20;;;;;8.06;65.15;100889.34;5095149;28;8846;-62
2022/04/30 02:52:15;;;;;;;;;8.60;7.00;;;;;8.01;65.25;100886.97;5095869;28;8819;-64
2022/04/30 02:54:47;;;;;;;;;7.80;6.80;;;;;7.96;65.31;100889.00;5099557;28;9568;-63
2022/04/30 02:57:15;;;;;;;;;6.00;6.00;;;;;7.93;65.56;100881.22;5099208;28;8833;-63
2022/04/30 02:59:54;;;;;;;;;6.00;5.20;;;;;7.89;65.40;100879.66;5099191;28;8840;-62
2022/04/30 03:02:22;;;;;;;;;9.00;9.00;;;;;7.82;65.51;100883.56;5095906;28;9434;-61
2022/04/30 03:04:52;;;;;;;;;6.40;6.20;;;;;7.77;65.71;100882.94;5099149;28;8916;-65
2022/04/30 03:07:21;;;;;;;;;6.20;5.60;;;;;7.72;65.82;100877.06;5099221;28;8843;-62
2022/04/30 03:09:49;;;;;;;;;6.40;4.80;;;;;7.68;65.88;100881.72;5099028;28;9532;-62
2022/04/30 03:12:17;;;;;;;;;4.00;4.00;;;;;7.65;65.55;100873.94;5098315;28;9548;-61
2022/04/30 03:14:45;;;;;;;;;6.00;6.00;;;;;7.65;65.99;100868.66;5098978;28;8862;-62
2022/04/30 03:22:55;;;;;;;;;6.00;5.20;;;;;7.70;65.74;100863.00;5016511;28;8858;-63
2022/04/30 03:25:23;;;;;;;;;4.00;4.00;;;;;7.73;65.30;100867.28;5079767;28;8847;-62
2022/04/30 03:27:54;;;;;;;;;9.00;6.00;;;;;7.75;65.90;100866.28;5098578;28;8835;-62
2022/04/30 03:30:23;;;;;;;;;4.40;4.40;;;;;7.81;64.94;100867.72;5098322;28;8831;-61
2022/04/30 03:32:50;;;;;;;;;6.60;5.60;;;;;7.85;65.14;100870.13;5097978;28;8848;-61
2022/04/30 03:35:18;;;;;;;;;6.20;5.20;;;;;7.91;65.01;100859.19;5097455;28;8825;-62
2022/04/30 03:37:46;;;;;;;;;6.80;6.40;;;;;7.96;65.60;100857.16;5097774;28;8837;-61
2022/04/30 03:40:14;;;;;;;;;4.00;4.00;;;;;8.01;65.06;100856.91;5097493;28;8853;-61
2022/04/30 03:42:42;;;;;;;;;6.00;4.00;;;;;8.07;65.20;100861.88;5097530;28;8835;-62
2022/04/30 03:45:09;;;;;;;;;9.00;7.40;;;;;8.08;65.00;100856.50;5097454;28;8944;-62
2022/04/30 03:47:37;;;;;;;;;3.80;3.20;;;;;8.12;64.87;100858.03;5098124;28;8833;-62
2022/04/30 03:50:05;;;;;;;;;9.40;6.80;;;;;8.12;64.70;100851.88;5098193;28;8862;-62
2022/04/30 03:52:33;;;;;;;;;6.00;6.00;;;;;8.11;65.00;100852.81;5098267;28;8847;-62
2022/04/30 03:55:00;;;;;;;;;10.80;9.80;;;;;8.11;64.53;100855.47;5098144;28;8881;-61
2022/04/30 03:57:29;;;;;;;;;3.00;3.00;;;;;8.09;64.89;100860.88;5098590;28;8831;-62
2022/04/30 03:59:57;;;;;;;;;3.80;3.80;;;;;8.12;64.86;100862.47;5098189;28;8834;-62
2022/04/30 04:02:24;;;;;;;;;4.80;4.00;;;;;8.17;64.75;100861.31;5097648;28;8811;-61
2022/04/30 04:04:53;;;;;;;;;8.60;7.60;;;;;8.21;65.09;100862.03;5098209;28;9829;-62
2022/04/30 04:07:21;;;;;;;;;6.00;4.80;;;;;8.23;65.13;100861.00;5098254;28;8843;-62
2022/04/30 04:09:48;;;;;;;;;3.00;2.60;;;;;8.25;65.33;100864.41;5098311;28;8962;-61
2022/04/30 04:12:16;;;;;;;;;3.00;3.00;;;;;8.28;65.06;100866.91;5097186;28;8820;-62
2022/04/30 04:17:41;;;;;;;;;6.00;4.80;;;;;8.36;64.67;100864.66;5097985;28;8966;-61
2022/04/30 04:20:09;;;;;;;;;7.00;6.20;;;;;8.35;64.52;100865.59;5097567;28;8847;-63
2022/04/30 04:22:37;;;;;;;;;7.00;5.20;;;;;8.35;64.83;100862.97;5097650;28;8953;-62
2022/04/30 04:27:53;;;;;;;;;4.00;4.00;;;;;8.39;64.85;100864.50;5097502;28;8867;-62
2022/04/30 04:30:22;;;;;;;;;5.20;4.40;;;;;8.42;64.78;100861.69;5097689;28;8857;-61
2022/04/30 04:32:49;;;;;;;;;3.60;3.00;;;;;8.45;64.84;100864.16;5097813;28;8886;-61
2022/04/30 04:35:17;;;;;;;;;6.40;5.60;;;;;8.44;64.83;100865.09;5097274;28;8828;-62
2022/04/30 04:37:45;;;;;;;;;7.80;6.60;;;;;8.44;64.61;100870.41;5097058;28;8954;-62
2022/04/30 04:40:12;;;;;;;;;1.60;0.80;;;;;8.41;65.02;100861.75;5097318;28;8819;-61
2022/04/30 04:42:40;;;;;;;;;7.60;5.40;;;;;8.41;64.69;100864.41;5097333;28;8827;-62
2022/04/30 04:45:08;;;;;;;;;9.20;7.40;;;;;8.41;65.29;100867.94;5097296;28;8824;-62
2022/04/30 04:47:36;;;;;;;;;6.40;6.40;;;;;8.42;65.28;100872.28;5097039;28;8839;-62
2022/04/30 04:50:03;;;;;;;;;7.00;6.00;;;;;8.45;65.29;100872.09;5096515;28;8891;-61
2022/04/30 04:52:31;;;;;;;;;6.40;5.60;;;;;8.46;65.40;100880.94;5096891;28;8838;-62
2022/04/30 04:54:59;;;;;;;;;6.00;4.00;;;;;8.46;65.07;100878.28;5096800;28;8958;-62
2022/04/30 04:57:27;;;;;;;;;6.80;5.60;;;;;8.46;65.30;100876.50;5096205;28;8831;-64
2022/04/30 04:59:55;;;;;;;;;4.00;3.00;;;;;8.49;65.21;100883.41;5096991;28;8843;-64
2022/04/30 05:02:22;;;;;;;;;6.20;5.20;;;;;8.50;65.01;100886.00;5095037;28;8857;-62
2022/04/30 05:04:50;;;;;;;;;4.00;4.00;;;;;8.52;64.94;100884.09;5096859;28;9521;-62
2022/04/30 05:07:18;;;;;;;;;3.60;3.60;;;;;8.58;65.08;100889.06;5096894;28;8837;-63
2022/04/30 05:09:46;;;;;;;;;0.00;0.00;;;;;8.62;65.04;100890.63;5096849;28;8816;-61
2022/04/30 05:12:13;;;;;;;;;6.20;6.20;;;;;8.64;64.92;100887.84;5096362;28;8848;-61
2022/04/30 05:14:41;;;;;;;;;3.40;3.40;;;;;8.65;64.60;100895.75;5095600;28;8824;-62
2022/04/30 05:17:10;;;;;;;;;6.00;4.00;;;;;8.66;64.79;100896.63;5096634;28;8901;-62
2022/04/30 05:19:37;;;;;;;;;6.00;4.80;;;;;8.67;64.67;100900.97;5096929;28;8835;-61
2022/04/30 05:22:05;;;;;;;;;6.00;5.60;;;;;8.69;64.97;100891.97;5095659;28;8828;-62
2022/04/30 05:24:33;;;;;;;;;6.40;6.40;;;;;8.74;64.56;100895.22;5096312;28;8823;-64
2022/04/30 05:27:01;;;;;;;;;3.40;3.40;;;;;8.81;64.42;100888.59;5096714;28;8954;-62
2022/04/30 05:29:29;;;;;;;;;5.60;5.60;;;;;8.85;64.62;100890.16;5096513;28;8832;-63
2022/04/30 05:31:57;;;;;;;;;5.20;5.20;;;;;8.93;64.54;100893.22;5095631;28;8816;-62
2022/04/30 05:34:24;;;;;;;;;4.40;4.40;;;;;8.99;64.49;100892.88;5096257;28;8837;-62
2022/04/30 05:36:52;;;;;;;;;5.20;5.20;;;;;9.09;64.46;100891.41;5095576;28;8850;-63
2022/04/30 05:39:20;;;;;;;;;5.60;5.60;;;;;9.15;64.01;100887.50;5095956;28;8835;-62
2022/04/30 05:41:48;;;;;;;;;6.20;5.60;;;;;9.20;64.08;100893.44;5095237;28;8820;-61
2022/04/30 05:44:15;;;;;;;;;8.80;7.80;;;;;9.27;63.92;100892.97;5094726;28;8974;-62
2022/04/30 05:46:44;;;;;;;;;6.20;6.00;;;;;9.35;63.75;100892.53;5095267;28;8851;-62
2022/04/30 05:49:11;;;;;;;;;6.20;5.60;;;;;9.44;63.73;100899.94;5094148;28;8819;-62
2022/04/30 05:51:39;;;;;;;;;5.20;4.80;;;;;9.49;63.69;100893.38;5093815;28;8851;-62
2022/04/30 05:54:07;;;;;;;;;6.20;6.20;;;;;9.56;63.35;100892.06;5093952;28;8823;-62
2022/04/30 05:56:35;;;;;;;;;4.40;4.00;;;;;9.62;63.54;100897.03;5093659;28;8913;-65
2022/04/30 05:59:03;;;;;;;;;5.40;5.20;;;;;9.68;63.35;100902.00;5094109;28;8843;-62
2022/04/30 06:01:30;;;;;;;;;7.80;5.60;;;;;9.72;62.94;100906.16;5093865;28;8820;-63
2022/04/30 06:03:58;;;;;;;;;4.25;4.25;;;;;9.76;63.49;100893.53;5093739;28;8832;-63
2022/04/30 06:06:26;;;;;;;;;6.25;6.25;;;;;9.74;63.20;100896.31;5094215;28;8937;-63
2022/04/30 06:08:54;;;;;;;;;5.50;5.50;;;;;9.71;63.09;100901.78;5095540;28;8827;-62
2022/04/30 06:11:22;;;;;;;;;6.25;6.00;;;;;9.66;63.20;100909.19;5095108;28;8843;-62
2022/04/30 06:13:50;;;;;;;;;6.50;6.00;;;;;9.68;63.38;100911.75;5095142;28;8908;-62
2022/04/30 06:16:17;;;;;;;;;5.00;5.00;;;;;9.70;63.93;100908.06;5095525;28;8836;-61
2022/04/30 06:18:46;;;;;;;;;6.60;6.00;;;;;9.72;63.42;100908.81;5095313;28;8920;-62
2022/04/30 06:21:33;;;;;;;;;6.40;5.80;;;;;9.75;63.57;100907.78;5094790;28;8870;-62
2022/04/30 06:24:01;;;;;;;;;6.80;6.80;;;;;9.76;63.28;100904.16;5095234;28;8832;-61
2022/04/30 06:26:33;;;;;;;;;6.40;5.00;;;;;9.78;63.43;100908.44;5097194;28;8831;-62
2022/04/30 06:29:02;;;;;;;;;4.80;4.80;;;;;9.78;63.43;100907.63;5099370;28;8836;-61
2022/04/30 06:31:30;;;;;;;;;4.75;4.75;;;;;9.78;63.29;100903.13;5099097;28;8827;-61
2022/04/30 06:33:58;;;;;;;;;3.00;1.00;;;;;9.82;63.43;100915.31;5099650;28;8816;-62
2022/04/30 06:36:26;;;;;;;;;1.50;1.50;;;;;9.88;63.14;100909.59;5099555;28;8831;-62
2022/04/30 06:38:54;;;;;;;;;7.80;6.00;;;;;9.91;63.30;100913.88;5099137;28;8854;-62
2022/04/30 06:41:22;;;;;;;;;7.00;7.00;;;;;9.95;63.14;100918.06;5098792;28;8824;-62
2022/04/30 06:43:51;;;;;;;;;6.00;6.00;;;;;10.00;63.15;100918.63;5099355;28;8812;-62
2022/04/30 06:46:18;;;;;;;;;6.25;5.50;;;;;10.07;62.94;100910.22;5099573;28;8982;-62
2022/04/30 06:48:46;;;;;;;;;6.00;4.00;;;;;10.09;62.88;100910.13;5099017;28;8978;-62
2022/04/30 06:51:14;;;;;;;;;7.50;6.50;;;;;10.10;62.74;100907.34;5098830;28;8993;-62
2022/04/30 06:59:12;;;;;;;;;3.75;3.75;;;;;10.21;62.58;100912.88;5099237;28;8966;-62
2022/04/30 07:01:43;;;;;;;;;4.75;4.25;;;;;10.33;62.75;100917.41;5097881;28;8803;-63
2022/04/30 07:04:11;;;;;;;;;3.75;3.75;;;;;10.49;62.22;100909.31;5098539;28;8828;-62
2022/04/30 07:06:39;;;;;;;;;4.00;4.00;;;;;10.65;61.83;100908.25;5099051;28;8970;-62
2022/04/30 07:09:07;;;;;;;;;4.25;4.00;;;;;10.80;61.65;100901.91;5098804;28;8831;-62
2022/04/30 07:11:35;;;;;;;;;7.00;5.25;;;;;10.87;61.59;100903.25;5097650;28;8924;-62
2022/04/30 07:14:03;;;;;;;;;4.00;4.00;;;;;10.94;61.25;100904.50;5098460;28;8839;-62
2022/04/30 07:16:30;;;;;;;;;6.00;4.00;;;;;11.04;61.49;100900.31;5098807;28;8866;-62
2022/04/30 07:19:01;;;;;;;;;5.50;5.50;;;;;11.05;61.28;100903.81;5098706;28;8920;-62
2022/04/30 07:21:30;;;;;;;;;1.50;1.00;;;;;10.95;61.72;100906.25;5097606;28;8832;-62
2022/04/30 07:23:57;;;;;;;;;3.50;3.25;;;;;11.01;61.62;100905.81;5098438;28;8831;-62
2022/04/30 07:26:25;;;;;;;;;6.25;6.25;;;;;11.07;61.39;100915.25;5097720;28;8835;-63
2022/04/30 07:28:53;;;;;;;;;6.00;4.50;;;;;11.00;61.14;100898.78;5098341;28;8827;-63
2022/04/30 07:31:21;;;;;;;;;7.50;7.00;;;;;10.97;61.87;100899.00;5097685;28;8831;-63
2022/04/30 07:33:51;;;;;;;;;6.00;6.00;;;;;11.01;61.57;100899.66;5098072;28;9532;-62
2022/04/30 07:36:19;;;;;;;;;5.00;5.00;;;;;11.02;61.76;100906.69;5098357;28;8831;-63
2022/04/30 07:38:47;;;;;;;;;6.25;6.25;;;;;11.05;61.58;100894.00;5097874;28;8831;-63
2022/04/30 07:41:15;;;;;;;;;6.75;6.00;;;;;11.03;61.98;100898.59;5097499;28;8820;-62
2022/04/30 07:43:42;;;;;;;;;4.50;3.75;;;;;10.99;62.06;100897.09;5097711;28;8851;-62
2022/04/30 07:46:10;;;;;;;;;3.75;3.75;;;;;10.92;61.59;100895.78;5097525;28;8855;-62
2022/04/30 07:48:39;;;;;;;;;7.75;6.25;;;;;11.10;61.47;100897.25;5097561;28;8824;-63
2022/04/30 07:51:13;;;;;;;;;3.50;3.50;;;;;11.35;61.41;100888.44;5097377;28;8859;-63
2022/04/30 07:53:41;;;;;;;;;6.75;6.75;;;;;11.60;60.46;100886.69;5097517;28;8823;-63
2022/04/30 07:56:10;;;;;;;;;4.50;4.00;;;;;11.92;59.76;100879.13;5097907;28;8836;-63
2022/04/30 07:58:37;;;;;;;;;3.75;3.00;;;;;12.15;59.49;100892.56;5097174;28;8832;-62
2022/04/30 08:01:05;;;;;;;;;6.00;6.00;;;;;12.41;58.61;100883.53;5097450;28;8846;-63
2022/04/30 08:03:33;;;;;;;;;4.00;2.50;;;;;12.54;58.53;100887.88;5096752;28;9001;-63
2022/04/30 08:06:01;;;;;;;;;3.50;3.50;;;;;12.48;58.59;100890.16;5095117;28;8855;-62
2022/04/30 08:08:29;;;;;;;;;6.25;6.25;;;;;12.35;58.97;100884.84;5095105;28;8928;-63
2022/04/30 08:10:56;;;;;;;;;4.00;4.00;;;;;12.18;59.50;100890.53;5094289;28;8832;-62
2022/04/30 08:13:24;;;;;;;;;6.75;6.50;;;;;12.13;59.58;100883.78;5095080;28;8831;-63
2022/04/30 08:15:52;;;;;;;;;9.25;7.00;;;;;12.20;59.56;100885.06;5096412;28;8827;-62
2022/04/30 08:18:20;;;;;;;;;10.00;9.75;;;;;12.32;59.51;100881.53;5095665;28;8807;-62
2022/04/30 08:20:47;;;;;;;;;4.50;3.50;;;;;12.43;59.06;100878.94;5096686;28;8832;-62
2022/04/30 08:23:15;;;;;;;;;7.00;6.00;;;;;12.58;58.55;100880.50;5096825;28;8831;-65
2022/04/30 08:25:43;;;;;;;;;4.00;3.00;;;;;12.66;58.24;100875.44;5096862;28;8997;-63
2022/04/30 08:28:13;;;;;;;;;4.50;4.00;;;;;12.62;58.32;100876.66;5096278;28;8803;-62
2022/04/30 08:30:41;;;;;;;;;5.25;4.00;;;;;12.56;58.87;100882.44;5096828;28;8828;-63
2022/04/30 08:33:09;;;;;;;;;3.50;3.50;;;;;12.50;58.67;100883.72;5096670;28;8968;-62
2022/04/30 08:35:37;;;;;;;;;4.50;4.50;;;;;12.46;58.29;100884.91;5097030;28;9613;-62
2022/04/30 08:38:09;;;;;;;;;0.75;0.75;;;;;12.42;58.83;100879.91;5096139;28;8800;-63
2022/04/30 08:40:36;;;;;;;;;4.00;4.00;;;;;12.37;58.75;100874.88;5096869;28;8828;-63
2022/04/30 08:43:04;;;;;;;;;5.00;5.00;;;;;12.41;58.45;100878.19;5096202;28;8870;-62
2022/04/30 08:45:32;;;;;;;;;5.00;5.00;;;;;12.48;58.39;100876.78;5095831;28;9741;-62
2022/04/30 08:48:01;;;;;;;;;3.00;2.50;;;;;12.54;58.46;100884.38;5095791;28;8850;-63
2022/04/30 08:50:29;;;;;;;;;6.00;5.00;;;;;12.56;58.16;100887.78;5094406;28;8840;-63
2022/04/30 08:52:57;;;;;;;;;8.00;6.75;;;;;12.66;57.79;100872.75;5094503;28;8831;-62
2022/04/30 08:55:25;;;;;;;;;5.00;5.00;;;;;12.98;57.19;100873.97;5094802;28;8866;-62
2022/04/30 08:57:53;;;;;;;;;7.00;6.00;;;;;13.18;57.02;100875.97;5094285;28;8823;-63
2022/04/30 09:00:20;;;;;;;;;4.50;3.75;;;;;13.27;56.67;100869.94;5094927;28;8940;-62
2022/04/30 09:02:48;;;;;;;;;7.25;7.25;;;;;13.26;56.72;100873.56;5093222;28;8839;-62
2022/04/30 09:05:16;;;;;;;;;6.50;5.00;;;;;13.24;57.12;100880.88;5093090;28;8835;-63
2022/04/30 09:07:44;;;;;;;;;6.00;4.00;;;;;13.19;56.92;100869.66;5094235;28;8895;-63
2022/04/30 09:10:12;;;;;;;;;4.00;4.00;;;;;13.14;57.15;100875.34;5095098;28;8835;-64
2022/04/30 09:12:41;;;;;;;;;6.00;6.00;;;;;13.09;56.89;100884.69;5093398;28;8851;-63
2022/04/30 09:15:09;;;;;;;;;3.75;3.00;;;;;12.98;57.67;100876.63;5095141;28;8959;-62
2022/04/30 09:17:37;;;;;;;;;4.00;4.00;;;;;12.90;57.41;100874.50;5093942;28;8843;-62
2022/04/30 09:20:05;;;;;;;;;6.00;4.00;;;;;13.17;57.42;100868.94;5094819;28;8979;-62
2022/04/30 09:22:33;;;;;;;;;6.00;6.00;;;;;13.61;55.65;100869.94;5094249;28;8855;-62
2022/04/30 09:25:00;;;;;;;;;6.50;6.50;;;;;14.19;54.59;100866.25;5095011;28;8979;-62
2022/04/30 09:27:49;;;;;;;;;4.00;3.75;;;;;14.83;53.01;100849.31;5094116;28;8856;-62
2022/04/30 09:30:17;;;;;;;;;7.25;6.75;;;;;15.27;52.67;100843.75;5094170;28;8838;-63
2022/04/30 09:32:45;;;;;;;;;5.00;5.00;;;;;15.64;51.54;100845.88;5093720;28;8865;-63
2022/04/30 09:37:59;;;;;;;;;5.00;4.00;;;;;15.93;51.25;100844.22;5094679;28;8968;-62
2022/04/30 09:40:26;;;;;;;;;4.00;4.00;;;;;15.71;51.93;100838.16;5093751;28;8838;-63
2022/04/30 09:42:54;;;;;;;;;2.75;1.50;;;;;15.40;52.18;100845.31;5090900;28;9493;-62
2022/04/30 09:45:21;;;;;;;;;3.75;3.25;;;;;15.04;53.04;100845.72;5093172;28;8857;-63
2022/04/30 09:47:50;;;;;;;;;3.50;3.25;;;;;14.89;53.43;100844.31;5093224;28;8946;-62
2022/04/30 09:55:48;;;;;;;;;7.00;6.00;;;;;17.45;48.91;100823.88;5094270;28;9521;-63
2022/04/30 09:58:15;;;;;;;;;6.50;6.00;;;;;18.23;47.89;100828.91;5094022;28;8854;-63
2022/04/30 10:00:43;;;;;;;;;4.50;4.50;;;;;18.86;46.78;100820.75;5094363;28;8812;-63
2022/04/30 10:03:11;;;;;;;;;7.00;6.25;;;;;19.43;46.31;100816.75;5094318;28;8827;-62
2022/04/30 10:05:39;;;;;;;;;4.40;4.00;;;;;19.94;45.67;100812.19;5094146;28;8832;-63
2022/04/30 10:08:06;;;;;;;;;4.80;4.00;;;;;20.35;44.33;100811.41;5093712;28;8846;-63
2022/04/30 10:10:36;;;;;;;;;3.80;3.80;;;;;20.74;44.26;100812.56;5094194;28;8973;-63
2022/04/30 10:13:04;;;;;;;;;6.00;6.00;;;;;21.16;43.39;100802.47;5094010;28;8855;-63
2022/04/30 10:15:32;;;;;;;;;5.20;5.20;;;;;21.63;42.53;100800.78;5095083;28;8827;-63
2022/04/30 10:18:00;;;;;;;;;6.20;5.00;;;;;22.08;42.53;100809.22;5094777;28;8847;-63
2022/04/30 10:20:29;;;;;;;;;5.00;4.40;;;;;22.63;41.49;100804.59;5095027;28;8978;-63
2022/04/30 10:22:57;;;;;;;;;4.40;2.80;;;;;22.16;42.41;100804.56;5094675;28;8846;-63
2022/04/30 10:25:25;;;;;;;;;4.60;4.60;;;;;21.06;44.56;100809.94;5095252;28;8978;-63
2022/04/30 10:27:53;;;;;;;;;6.60;6.60;;;;;20.20;45.06;100823.00;5094259;28;8954;-63
2022/04/30 10:30:23;;;;;;;;;1.00;1.00;;;;;19.61;46.21;100815.69;5092308;28;8847;-63
2022/04/30 10:32:51;;;;;;;;;5.20;5.20;;;;;19.50;46.26;100815.94;5091582;28;8854;-63
2022/04/30 10:35:19;;;;;;;;;5.20;5.20;;;;;18.98;46.66;100806.00;5092461;28;8846;-63
2022/04/30 10:37:47;;;;;;;;;6.60;5.80;;;;;18.43;47.55;100819.75;5093009;28;8861;-63
2022/04/30 10:40:14;;;;;;;;;4.00;3.40;;;;;17.86;48.45;100812.75;5092167;28;8870;-63
2022/04/30 10:42:47;;;;;;;;;6.20;6.00;;;;;17.40;49.19;100814.53;5092634;28;8835;-63
2022/04/30 10:45:16;;;;;;;;;6.40;6.00;;;;;17.12;49.57;100820.75;5093132;28;8851;-64
2022/04/30 10:47:44;;;;;;;;;5.00;5.00;;;;;16.90;49.72;100812.97;5094073;28;8835;-64
2022/04/30 10:50:11;;;;;;;;;5.50;4.00;;;;;16.68;50.47;100814.09;5094163;28;8915;-63
2022/04/30 10:52:39;;;;;;;;;4.50;4.50;;;;;16.73;50.05;100813.66;5093405;28;8840;-63
2022/04/30 10:55:07;;;;;;;;;4.00;3.50;;;;;16.64;50.43;100807.28;5093321;28;8839;-63
2022/04/30 10:57:35;;;;;;;;;6.00;6.00;;;;;17.43;48.52;100800.78;5094659;28;8966;-62
2022/04/30 11:00:02;;;;;;;;;4.50;4.00;;;;;17.96;47.57;100800.06;5092857;28;8946;-63
2022/04/30 11:02:30;;;;;;;;;3.75;3.75;;;;;18.09;47.11;100795.19;5094154;28;9680;-64
2022/04/30 11:04:59;;;;;;;;;6.00;5.00;;;;;18.20;46.35;100794.13;5093037;28;8920;-63
2022/04/30 11:07:26;;;;;;;;;3.00;3.00;;;;;19.12;45.34;100785.72;5093436;28;8840;-64
2022/04/30 11:09:54;;;;;;;;;5.20;4.00;;;;;20.27;43.62;100775.34;5093495;28;8855;-62
2022/04/30 11:12:22;;;;;;;;;9.20;7.20;;;;;21.40;41.61;100770.81;5093340;28;8869;-63
2022/04/30 11:14:50;;;;;;;;;6.20;5.40;;;;;22.47;40.08;100761.22;5096886;28;8816;-64
2022/04/30 11:17:18;;;;;;;;;7.40;7.40;;;;;23.23;39.44;100756.63;5095509;28;8847;-64
2022/04/30 11:19:46;;;;;;;;;2.00;2.00;;;;;23.02;39.13;100760.00;5096223;28;8839;-64
2022/04/30 11:22:14;;;;;;;;;6.60;6.60;;;;;22.79;39.86;100752.88;5096443;28;8854;-63
2022/04/30 11:24:42;;;;;;;;;4.80;4.80;;;;;23.25;38.99;100744.56;5094820;28;8823;-63
2022/04/30 11:27:10;;;;;;;;;4.80;4.80;;;;;23.92;37.92;100742.69;5094793;28;9239;-64
2022/04/30 11:29:38;;;;;;;;;6.00;5.00;;;;;24.34;37.62;100743.69;5095565;28;8823;-63
2022/04/30 11:32:12;;;;;;;;;4.80;4.40;;;;;24.74;36.95;100745.03;5095630;28;9628;-63
2022/04/30 11:34:40;;;;;;;;;5.60;3.60;;;;;25.03;36.74;100742.19;5095216;28;8832;-63
2022/04/30 11:37:09;;;;;;;;;7.60;5.40;;;;;24.47;37.87;100741.13;5095700;28;8824;-63
2022/04/30 11:39:42;;;;;;;;;4.80;4.80;;;;;23.39;39.00;100745.59;5095630;28;8840;-63
2022/04/30 11:42:11;;;;;;;;;7.20;6.00;;;;;22.31;41.41;100742.28;5096933;28;8827;-63
2022/04/30 11:44:38;;;;;;;;;5.80;5.20;;;;;21.29;42.01;100749.50;5096750;28;8840;-64
2022/04/30 11:47:06;;;;;;;;;5.60;5.00;;;;;20.52;43.79;100753.63;5097433;28;8862;-63
2022/04/30 11:49:34;;;;;;;;;5.80;5.80;;;;;19.97;44.49;100752.38;5097420;28;8833;-63
2022/04/30 11:52:06;;;;;;;;;6.20;5.00;;;;;19.43;45.27;100752.72;5096151;28;8836;-63
2022/04/30 11:54:33;;;;;;;;;7.00;7.00;;;;;19.94;44.28;100751.88;5093171;28;9505;-63
2022/04/30 11:57:02;;;;;;;;;7.00;7.00;;;;;21.16;42.05;100742.88;5096410;28;8862;-62
2022/04/30 11:59:30;;;;;;;;;5.80;5.40;;;;;22.31;39.88;100739.56;5097051;28;8819;-63
2022/04/30 12:01:57;;;;;;;;;4.20;4.00;;;;;22.99;39.38;100733.19;5096614;28;8823;-63
2022/04/30 12:04:25;;;;;;;;;6.80;6.80;;;;;23.55;38.25;100734.56;5096454;28;8922;-62
2022/04/30 12:06:53;;;;;;;;;6.80;5.00;;;;;23.80;38.29;100733.25;5096466;28;8832;-63
2022/04/30 12:09:21;;;;;;;;;5.80;5.80;;;;;22.87;39.76;100736.50;5096671;28;8839;-62
2022/04/30 12:11:50;;;;;;;;;5.40;5.00;;;;;22.37;40.61;100739.69;5096299;28;8852;-63
2022/04/30 12:14:18;;;;;;;;;7.00;6.20;;;;;21.90;40.84;100738.88;5096818;28;8843;-63